sensor_id;sensor_type;location;lat;lon;timestamp;P1;durP1;ratioP1;P2;durP2;ratioP2
79261;SDS011;68699;48.220;16.358;2024-03-08T00:00:17;39.50;;;26.00;;
79261;SDS011;68699;48.220;16.358;2024-03-08T00:02:47;37.53;;;24.27;;
79261;SDS011;68699;48.220;16.358;2024-03-08T00:05:15;38.93;;;25.23;;
79261;SDS011;68699;48.220;16.358;2024-03-08T00:07:43;38.40;;;24.77;;
79261;SDS011;68699;48.220;16.358;2024-03-08T00:10:10;36.87;;;24.73;;
79261;SDS011;68699;48.220;16.358;2024-03-08T00:12:42;37.63;;;24.90;;
79261;SDS011;68699;48.220;16.358;2024-03-08T00:15:09;37.97;;;25.80;;
79261;SDS011;68699;48.220;16.358;2024-03-08T00:17:36;38.00;;;26.07;;
79261;SDS011;68699;48.220;16.358;2024-03-08T00:20:03;38.20;;;24.77;;
79261;SDS011;68699;48.220;16.358;2024-03-08T00:22:30;41.20;;;24.93;;
79261;SDS011;68699;48.220;16.358;2024-03-08T00:24:56;38.67;;;25.23;;
79261;SDS011;68699;48.220;16.358;2024-03-08T00:27:22;39.27;;;25.80;;
79261;SDS011;68699;48.220;16.358;2024-03-08T00:29:49;38.17;;;25.50;;
79261;SDS011;68699;48.220;16.358;2024-03-08T00:32:15;35.30;;;24.03;;
79261;SDS011;68699;48.220;16.358;2024-03-08T00:34:42;36.40;;;24.83;;
79261;SDS011;68699;48.220;16.358;2024-03-08T00:37:08;38.60;;;24.93;;
79261;SDS011;68699;48.220;16.358;2024-03-08T00:39:35;38.23;;;25.03;;
79261;SDS011;68699;48.220;16.358;2024-03-08T00:42:01;37.20;;;25.60;;
79261;SDS011;68699;48.220;16.358;2024-03-08T00:44:28;38.93;;;26.03;;
79261;SDS011;68699;48.220;16.358;2024-03-08T00:46:54;40.20;;;25.20;;
79261;SDS011;68699;48.220;16.358;2024-03-08T00:49:21;37.53;;;25.87;;
79261;SDS011;68699;48.220;16.358;2024-03-08T00:51:48;37.03;;;25.00;;
79261;SDS011;68699;48.220;16.358;2024-03-08T00:54:14;40.70;;;26.30;;
79261;SDS011;68699;48.220;16.358;2024-03-08T00:56:41;37.90;;;25.13;;
79261;SDS011;68699;48.220;16.358;2024-03-08T00:59:08;37.57;;;25.53;;
79261;SDS011;68699;48.220;16.358;2024-03-08T01:01:34;37.33;;;25.30;;
79261;SDS011;68699;48.220;16.358;2024-03-08T01:04:00;40.60;;;26.30;;
79261;SDS011;68699;48.220;16.358;2024-03-08T01:06:26;36.43;;;25.30;;
79261;SDS011;68699;48.220;16.358;2024-03-08T01:08:52;37.20;;;25.73;;
79261;SDS011;68699;48.220;16.358;2024-03-08T01:11:18;37.53;;;25.90;;
79261;SDS011;68699;48.220;16.358;2024-03-08T01:13:45;37.33;;;25.20;;
79261;SDS011;68699;48.220;16.358;2024-03-08T01:16:12;37.40;;;26.27;;
79261;SDS011;68699;48.220;16.358;2024-03-08T01:18:38;37.30;;;24.93;;
79261;SDS011;68699;48.220;16.358;2024-03-08T01:21:04;37.47;;;25.13;;
79261;SDS011;68699;48.220;16.358;2024-03-08T01:23:31;38.97;;;25.77;;
79261;SDS011;68699;48.220;16.358;2024-03-08T01:25:57;39.60;;;26.00;;
79261;SDS011;68699;48.220;16.358;2024-03-08T01:28:24;36.97;;;25.03;;
79261;SDS011;68699;48.220;16.358;2024-03-08T01:30:50;40.07;;;27.47;;
79261;SDS011;68699;48.220;16.358;2024-03-08T01:33:24;39.50;;;26.13;;
79261;SDS011;68699;48.220;16.358;2024-03-08T01:35:51;44.77;;;27.27;;
79261;SDS011;68699;48.220;16.358;2024-03-08T01:38:17;38.73;;;25.70;;
79261;SDS011;68699;48.220;16.358;2024-03-08T01:40:44;40.33;;;26.53;;
79261;SDS011;68699;48.220;16.358;2024-03-08T01:43:43;41.27;;;27.33;;
79261;SDS011;68699;48.220;16.358;2024-03-08T01:46:02;39.30;;;26.47;;
79261;SDS011;68699;48.220;16.358;2024-03-08T01:48:28;40.03;;;27.07;;
79261;SDS011;68699;48.220;16.358;2024-03-08T01:50:55;42.37;;;27.77;;
79261;SDS011;68699;48.220;16.358;2024-03-08T01:53:22;41.73;;;26.93;;
79261;SDS011;68699;48.220;16.358;2024-03-08T01:55:49;42.30;;;26.03;;
79261;SDS011;68699;48.220;16.358;2024-03-08T01:58:17;40.80;;;26.50;;
79261;SDS011;68699;48.220;16.358;2024-03-08T02:00:47;41.47;;;27.50;;
79261;SDS011;68699;48.220;16.358;2024-03-08T02:03:17;41.23;;;27.20;;
79261;SDS011;68699;48.220;16.358;2024-03-08T02:05:43;41.50;;;27.20;;
79261;SDS011;68699;48.220;16.358;2024-03-08T02:08:09;43.83;;;28.43;;
79261;SDS011;68699;48.220;16.358;2024-03-08T02:10:43;43.60;;;27.60;;
79261;SDS011;68699;48.220;16.358;2024-03-08T02:13:10;43.33;;;28.73;;
79261;SDS011;68699;48.220;16.358;2024-03-08T02:16:10;40.70;;;27.33;;
79261;SDS011;68699;48.220;16.358;2024-03-08T02:18:29;45.07;;;28.13;;
79261;SDS011;68699;48.220;16.358;2024-03-08T02:21:00;40.87;;;26.27;;
79261;SDS011;68699;48.220;16.358;2024-03-08T02:23:30;40.57;;;27.87;;
79261;SDS011;68699;48.220;16.358;2024-03-08T02:25:57;41.57;;;27.10;;
79261;SDS011;68699;48.220;16.358;2024-03-08T02:28:23;41.20;;;27.97;;
79261;SDS011;68699;48.220;16.358;2024-03-08T02:30:53;43.27;;;28.87;;
79261;SDS011;68699;48.220;16.358;2024-03-08T02:33:22;43.77;;;28.33;;
79261;SDS011;68699;48.220;16.358;2024-03-08T02:35:48;43.30;;;28.13;;
79261;SDS011;68699;48.220;16.358;2024-03-08T02:38:16;43.10;;;27.63;;
79261;SDS011;68699;48.220;16.358;2024-03-08T02:40:44;41.93;;;27.40;;
79261;SDS011;68699;48.220;16.358;2024-03-08T02:43:11;42.17;;;28.20;;
79261;SDS011;68699;48.220;16.358;2024-03-08T02:45:37;42.20;;;27.23;;
79261;SDS011;68699;48.220;16.358;2024-03-08T02:48:04;44.17;;;28.87;;
79261;SDS011;68699;48.220;16.358;2024-03-08T02:50:31;41.80;;;27.63;;
79261;SDS011;68699;48.220;16.358;2024-03-08T02:52:59;45.47;;;28.70;;
79261;SDS011;68699;48.220;16.358;2024-03-08T02:55:25;44.90;;;28.70;;
79261;SDS011;68699;48.220;16.358;2024-03-08T02:57:52;46.03;;;28.10;;
79261;SDS011;68699;48.220;16.358;2024-03-08T03:00:21;42.43;;;28.10;;
79261;SDS011;68699;48.220;16.358;2024-03-08T03:02:51;41.67;;;27.63;;
79261;SDS011;68699;48.220;16.358;2024-03-08T03:05:20;42.97;;;27.40;;
79261;SDS011;68699;48.220;16.358;2024-03-08T03:07:46;41.17;;;28.10;;
79261;SDS011;68699;48.220;16.358;2024-03-08T03:10:13;42.53;;;28.03;;
79261;SDS011;68699;48.220;16.358;2024-03-08T03:12:42;43.27;;;28.77;;
79261;SDS011;68699;48.220;16.358;2024-03-08T03:15:08;44.13;;;28.20;;
79261;SDS011;68699;48.220;16.358;2024-03-08T03:17:34;40.30;;;27.43;;
79261;SDS011;68699;48.220;16.358;2024-03-08T03:20:00;44.17;;;28.73;;
79261;SDS011;68699;48.220;16.358;2024-03-08T03:22:34;44.43;;;28.17;;
79261;SDS011;68699;48.220;16.358;2024-03-08T03:25:00;40.73;;;27.03;;
79261;SDS011;68699;48.220;16.358;2024-03-08T03:27:27;40.70;;;27.17;;
79261;SDS011;68699;48.220;16.358;2024-03-08T03:29:55;41.03;;;27.57;;
79261;SDS011;68699;48.220;16.358;2024-03-08T03:32:22;40.37;;;26.50;;
79261;SDS011;68699;48.220;16.358;2024-03-08T03:34:49;42.33;;;27.83;;
79261;SDS011;68699;48.220;16.358;2024-03-08T03:37:21;43.57;;;27.70;;
79261;SDS011;68699;48.220;16.358;2024-03-08T03:39:48;40.40;;;27.63;;
79261;SDS011;68699;48.220;16.358;2024-03-08T03:42:16;45.77;;;28.60;;
79261;SDS011;68699;48.220;16.358;2024-03-08T03:44:46;43.40;;;27.43;;
79261;SDS011;68699;48.220;16.358;2024-03-08T03:47:12;42.80;;;28.37;;
79261;SDS011;68699;48.220;16.358;2024-03-08T03:49:40;40.90;;;27.33;;
79261;SDS011;68699;48.220;16.358;2024-03-08T03:52:06;38.23;;;26.53;;
79261;SDS011;68699;48.220;16.358;2024-03-08T03:54:32;39.83;;;27.20;;
79261;SDS011;68699;48.220;16.358;2024-03-08T03:56:58;43.33;;;28.53;;
79261;SDS011;68699;48.220;16.358;2024-03-08T03:59:25;41.93;;;28.57;;
79261;SDS011;68699;48.220;16.358;2024-03-08T04:01:52;41.03;;;27.37;;
79261;SDS011;68699;48.220;16.358;2024-03-08T04:04:19;41.40;;;26.83;;
79261;SDS011;68699;48.220;16.358;2024-03-08T04:06:46;42.97;;;27.37;;
79261;SDS011;68699;48.220;16.358;2024-03-08T04:09:12;39.93;;;27.13;;
79261;SDS011;68699;48.220;16.358;2024-03-08T04:11:39;39.57;;;27.23;;
79261;SDS011;68699;48.220;16.358;2024-03-08T04:14:05;39.43;;;26.67;;
79261;SDS011;68699;48.220;16.358;2024-03-08T04:16:31;40.57;;;26.63;;
79261;SDS011;68699;48.220;16.358;2024-03-08T04:18:58;40.00;;;27.27;;
79261;SDS011;68699;48.220;16.358;2024-03-08T04:21:24;41.77;;;28.10;;
79261;SDS011;68699;48.220;16.358;2024-03-08T04:23:50;45.53;;;28.90;;
79261;SDS011;68699;48.220;16.358;2024-03-08T04:26:16;40.50;;;27.60;;
79261;SDS011;68699;48.220;16.358;2024-03-08T04:28:43;37.97;;;26.90;;
79261;SDS011;68699;48.220;16.358;2024-03-08T04:31:09;43.43;;;27.23;;
79261;SDS011;68699;48.220;16.358;2024-03-08T04:33:35;37.47;;;26.57;;
79261;SDS011;68699;48.220;16.358;2024-03-08T04:36:02;38.93;;;27.43;;
79261;SDS011;68699;48.220;16.358;2024-03-08T04:38:29;38.03;;;26.20;;
79261;SDS011;68699;48.220;16.358;2024-03-08T04:40:56;41.60;;;27.23;;
79261;SDS011;68699;48.220;16.358;2024-03-08T04:43:22;40.13;;;26.67;;
79261;SDS011;68699;48.220;16.358;2024-03-08T04:45:50;39.97;;;26.80;;
79261;SDS011;68699;48.220;16.358;2024-03-08T04:48:17;43.87;;;28.73;;
79261;SDS011;68699;48.220;16.358;2024-03-08T04:50:43;43.37;;;27.57;;
79261;SDS011;68699;48.220;16.358;2024-03-08T04:53:09;40.40;;;26.93;;
79261;SDS011;68699;48.220;16.358;2024-03-08T04:55:36;42.33;;;28.00;;
79261;SDS011;68699;48.220;16.358;2024-03-08T04:58:02;41.27;;;27.37;;
79261;SDS011;68699;48.220;16.358;2024-03-08T05:00:31;44.53;;;28.87;;
79261;SDS011;68699;48.220;16.358;2024-03-08T05:02:57;42.37;;;27.40;;
79261;SDS011;68699;48.220;16.358;2024-03-08T05:05:23;40.73;;;28.63;;
79261;SDS011;68699;48.220;16.358;2024-03-08T05:07:51;39.63;;;26.50;;
79261;SDS011;68699;48.220;16.358;2024-03-08T05:10:18;41.43;;;27.77;;
79261;SDS011;68699;48.220;16.358;2024-03-08T05:12:44;43.53;;;29.40;;
79261;SDS011;68699;48.220;16.358;2024-03-08T05:15:11;40.23;;;27.80;;
79261;SDS011;68699;48.220;16.358;2024-03-08T05:17:37;38.90;;;27.10;;
79261;SDS011;68699;48.220;16.358;2024-03-08T05:20:05;40.83;;;28.23;;
79261;SDS011;68699;48.220;16.358;2024-03-08T05:22:36;43.90;;;27.90;;
79261;SDS011;68699;48.220;16.358;2024-03-08T05:25:02;39.10;;;28.03;;
79261;SDS011;68699;48.220;16.358;2024-03-08T05:27:29;42.67;;;28.20;;
79261;SDS011;68699;48.220;16.358;2024-03-08T05:29:55;39.33;;;27.73;;
79261;SDS011;68699;48.220;16.358;2024-03-08T05:32:21;43.97;;;29.57;;
79261;SDS011;68699;48.220;16.358;2024-03-08T05:34:48;44.07;;;28.07;;
79261;SDS011;68699;48.220;16.358;2024-03-08T05:37:14;39.30;;;27.10;;
79261;SDS011;68699;48.220;16.358;2024-03-08T05:39:41;41.00;;;28.60;;
79261;SDS011;68699;48.220;16.358;2024-03-08T05:42:07;41.03;;;27.70;;
79261;SDS011;68699;48.220;16.358;2024-03-08T05:44:34;40.53;;;27.43;;
79261;SDS011;68699;48.220;16.358;2024-03-08T05:47:00;39.50;;;27.13;;
79261;SDS011;68699;48.220;16.358;2024-03-08T05:49:26;42.03;;;27.97;;
79261;SDS011;68699;48.220;16.358;2024-03-08T05:51:52;40.17;;;28.20;;
79261;SDS011;68699;48.220;16.358;2024-03-08T05:54:19;42.60;;;28.50;;
79261;SDS011;68699;48.220;16.358;2024-03-08T05:56:49;42.17;;;27.73;;
79261;SDS011;68699;48.220;16.358;2024-03-08T05:59:18;38.73;;;27.53;;
79261;SDS011;68699;48.220;16.358;2024-03-08T06:01:44;37.40;;;26.53;;
79261;SDS011;68699;48.220;16.358;2024-03-08T06:04:12;39.47;;;26.60;;
79261;SDS011;68699;48.220;16.358;2024-03-08T06:06:39;38.43;;;27.60;;
79261;SDS011;68699;48.220;16.358;2024-03-08T06:09:05;42.27;;;28.33;;
79261;SDS011;68699;48.220;16.358;2024-03-08T06:11:36;42.83;;;28.87;;
79261;SDS011;68699;48.220;16.358;2024-03-08T06:14:03;47.03;;;28.73;;
79261;SDS011;68699;48.220;16.358;2024-03-08T06:16:29;41.37;;;27.70;;
79261;SDS011;68699;48.220;16.358;2024-03-08T06:18:58;41.20;;;28.53;;
79261;SDS011;68699;48.220;16.358;2024-03-08T06:21:27;41.10;;;28.20;;
79261;SDS011;68699;48.220;16.358;2024-03-08T06:23:53;41.90;;;28.03;;
79261;SDS011;68699;48.220;16.358;2024-03-08T06:26:23;41.23;;;27.90;;
79261;SDS011;68699;48.220;16.358;2024-03-08T06:28:59;40.17;;;28.20;;
79261;SDS011;68699;48.220;16.358;2024-03-08T06:31:25;43.03;;;29.50;;
79261;SDS011;68699;48.220;16.358;2024-03-08T06:33:51;41.03;;;28.10;;
79261;SDS011;68699;48.220;16.358;2024-03-08T06:36:19;39.50;;;28.37;;
79261;SDS011;68699;48.220;16.358;2024-03-08T06:38:47;40.90;;;28.10;;
79261;SDS011;68699;48.220;16.358;2024-03-08T06:41:17;38.97;;;28.20;;
79261;SDS011;68699;48.220;16.358;2024-03-08T06:43:47;40.63;;;28.17;;
79261;SDS011;68699;48.220;16.358;2024-03-08T06:46:16;43.43;;;30.17;;
79261;SDS011;68699;48.220;16.358;2024-03-08T06:48:43;42.13;;;28.23;;
79261;SDS011;68699;48.220;16.358;2024-03-08T06:51:10;39.97;;;28.93;;
79261;SDS011;68699;48.220;16.358;2024-03-08T06:53:37;41.07;;;28.20;;
79261;SDS011;68699;48.220;16.358;2024-03-08T06:56:06;39.80;;;28.17;;
79261;SDS011;68699;48.220;16.358;2024-03-08T06:58:35;40.67;;;28.73;;
79261;SDS011;68699;48.220;16.358;2024-03-08T07:01:01;41.63;;;28.60;;
79261;SDS011;68699;48.220;16.358;2024-03-08T07:03:29;39.90;;;28.37;;
79261;SDS011;68699;48.220;16.358;2024-03-08T07:05:57;38.13;;;27.27;;
79261;SDS011;68699;48.220;16.358;2024-03-08T07:08:24;36.00;;;26.03;;
79261;SDS011;68699;48.220;16.358;2024-03-08T07:10:52;39.57;;;27.27;;
79261;SDS011;68699;48.220;16.358;2024-03-08T07:13:18;41.43;;;27.83;;
79261;SDS011;68699;48.220;16.358;2024-03-08T07:15:44;40.23;;;27.87;;
79261;SDS011;68699;48.220;16.358;2024-03-08T07:18:11;40.23;;;27.30;;
79261;SDS011;68699;48.220;16.358;2024-03-08T07:20:40;39.63;;;27.47;;
79261;SDS011;68699;48.220;16.358;2024-03-08T07:23:08;39.40;;;26.70;;
79261;SDS011;68699;48.220;16.358;2024-03-08T07:25:35;38.33;;;26.97;;
79261;SDS011;68699;48.220;16.358;2024-03-08T07:28:04;40.70;;;28.83;;
79261;SDS011;68699;48.220;16.358;2024-03-08T07:30:31;42.07;;;29.40;;
79261;SDS011;68699;48.220;16.358;2024-03-08T07:33:10;40.00;;;27.43;;
79261;SDS011;68699;48.220;16.358;2024-03-08T07:35:39;38.40;;;27.27;;
79261;SDS011;68699;48.220;16.358;2024-03-08T07:38:09;38.80;;;27.10;;
79261;SDS011;68699;48.220;16.358;2024-03-08T07:40:37;38.70;;;27.07;;
79261;SDS011;68699;48.220;16.358;2024-03-08T07:43:05;39.43;;;27.93;;
79261;SDS011;68699;48.220;16.358;2024-03-08T07:45:31;40.57;;;27.27;;
79261;SDS011;68699;48.220;16.358;2024-03-08T07:47:58;39.13;;;27.27;;
79261;SDS011;68699;48.220;16.358;2024-03-08T07:50:24;40.00;;;27.97;;
79261;SDS011;68699;48.220;16.358;2024-03-08T07:52:50;37.93;;;26.93;;
79261;SDS011;68699;48.220;16.358;2024-03-08T07:55:16;38.43;;;26.20;;
79261;SDS011;68699;48.220;16.358;2024-03-08T07:57:42;39.43;;;27.47;;
79261;SDS011;68699;48.220;16.358;2024-03-08T08:00:09;38.37;;;27.13;;
79261;SDS011;68699;48.220;16.358;2024-03-08T08:02:36;36.97;;;27.00;;
79261;SDS011;68699;48.220;16.358;2024-03-08T08:05:02;35.90;;;26.13;;
79261;SDS011;68699;48.220;16.358;2024-03-08T08:07:30;36.90;;;24.97;;
79261;SDS011;68699;48.220;16.358;2024-03-08T08:09:56;35.77;;;24.07;;
79261;SDS011;68699;48.220;16.358;2024-03-08T08:12:22;36.60;;;25.87;;
79261;SDS011;68699;48.220;16.358;2024-03-08T08:14:48;35.80;;;25.33;;
79261;SDS011;68699;48.220;16.358;2024-03-08T08:17:15;37.40;;;25.20;;
79261;SDS011;68699;48.220;16.358;2024-03-08T08:19:41;36.40;;;25.17;;
79261;SDS011;68699;48.220;16.358;2024-03-08T08:22:08;35.73;;;25.70;;
79261;SDS011;68699;48.220;16.358;2024-03-08T08:24:34;34.03;;;24.30;;
79261;SDS011;68699;48.220;16.358;2024-03-08T08:27:02;33.93;;;24.33;;
79261;SDS011;68699;48.220;16.358;2024-03-08T08:29:28;35.80;;;24.40;;
79261;SDS011;68699;48.220;16.358;2024-03-08T08:31:57;36.10;;;25.50;;
79261;SDS011;68699;48.220;16.358;2024-03-08T08:34:24;39.43;;;25.40;;
79261;SDS011;68699;48.220;16.358;2024-03-08T08:36:51;35.23;;;24.47;;
79261;SDS011;68699;48.220;16.358;2024-03-08T08:39:18;35.53;;;23.70;;
79261;SDS011;68699;48.220;16.358;2024-03-08T08:41:44;36.33;;;24.70;;
79261;SDS011;68699;48.220;16.358;2024-03-08T08:44:10;35.90;;;24.33;;
79261;SDS011;68699;48.220;16.358;2024-03-08T08:46:37;39.57;;;26.83;;
79261;SDS011;68699;48.220;16.358;2024-03-08T08:49:04;40.53;;;27.30;;
79261;SDS011;68699;48.220;16.358;2024-03-08T08:51:31;39.93;;;27.87;;
79261;SDS011;68699;48.220;16.358;2024-03-08T08:54:00;41.10;;;27.77;;
79261;SDS011;68699;48.220;16.358;2024-03-08T08:56:27;41.57;;;26.07;;
79261;SDS011;68699;48.220;16.358;2024-03-08T08:58:54;39.73;;;26.73;;
79261;SDS011;68699;48.220;16.358;2024-03-08T09:01:20;39.40;;;28.13;;
79261;SDS011;68699;48.220;16.358;2024-03-08T09:03:46;41.50;;;27.17;;
79261;SDS011;68699;48.220;16.358;2024-03-08T09:06:12;39.90;;;26.83;;
79261;SDS011;68699;48.220;16.358;2024-03-08T09:08:39;46.33;;;30.03;;
79261;SDS011;68699;48.220;16.358;2024-03-08T09:11:05;42.90;;;29.30;;
79261;SDS011;68699;48.220;16.358;2024-03-08T09:13:32;42.47;;;27.60;;
79261;SDS011;68699;48.220;16.358;2024-03-08T09:16:02;45.40;;;27.80;;
79261;SDS011;68699;48.220;16.358;2024-03-08T09:18:30;48.67;;;28.63;;
79261;SDS011;68699;48.220;16.358;2024-03-08T09:20:57;46.27;;;29.47;;
79261;SDS011;68699;48.220;16.358;2024-03-08T09:23:24;46.27;;;29.73;;
79261;SDS011;68699;48.220;16.358;2024-03-08T09:25:55;50.50;;;30.77;;
79261;SDS011;68699;48.220;16.358;2024-03-08T09:28:22;49.97;;;30.00;;
79261;SDS011;68699;48.220;16.358;2024-03-08T09:30:49;47.20;;;28.53;;
79261;SDS011;68699;48.220;16.358;2024-03-08T09:33:15;48.13;;;28.37;;
79261;SDS011;68699;48.220;16.358;2024-03-08T09:35:47;44.87;;;28.03;;
79261;SDS011;68699;48.220;16.358;2024-03-08T09:38:13;46.33;;;28.00;;
79261;SDS011;68699;48.220;16.358;2024-03-08T09:40:43;42.83;;;26.90;;
79261;SDS011;68699;48.220;16.358;2024-03-08T09:43:09;47.93;;;27.60;;
79261;SDS011;68699;48.220;16.358;2024-03-08T09:45:37;47.67;;;28.27;;
79261;SDS011;68699;48.220;16.358;2024-03-08T09:48:10;50.70;;;28.33;;
79261;SDS011;68699;48.220;16.358;2024-03-08T09:50:42;46.07;;;26.83;;
79261;SDS011;68699;48.220;16.358;2024-03-08T09:53:08;44.87;;;27.37;;
79261;SDS011;68699;48.220;16.358;2024-03-08T09:55:38;50.20;;;29.17;;
79261;SDS011;68699;48.220;16.358;2024-03-08T09:58:10;44.87;;;28.03;;
79261;SDS011;68699;48.220;16.358;2024-03-08T10:00:55;46.67;;;27.60;;
79261;SDS011;68699;48.220;16.358;2024-03-08T10:03:27;43.77;;;25.90;;
79261;SDS011;68699;48.220;16.358;2024-03-08T10:05:53;45.33;;;26.57;;
79261;SDS011;68699;48.220;16.358;2024-03-08T10:08:21;42.93;;;26.77;;
79261;SDS011;68699;48.220;16.358;2024-03-08T10:10:47;44.43;;;27.00;;
79261;SDS011;68699;48.220;16.358;2024-03-08T10:13:14;44.23;;;26.80;;
79261;SDS011;68699;48.220;16.358;2024-03-08T10:15:42;40.63;;;24.87;;
79261;SDS011;68699;48.220;16.358;2024-03-08T10:18:08;41.37;;;25.27;;
79261;SDS011;68699;48.220;16.358;2024-03-08T10:20:35;43.00;;;25.67;;
79261;SDS011;68699;48.220;16.358;2024-03-08T10:23:02;41.23;;;25.07;;
79261;SDS011;68699;48.220;16.358;2024-03-08T10:25:33;35.03;;;22.47;;
79261;SDS011;68699;48.220;16.358;2024-03-08T10:27:59;35.17;;;21.40;;
79261;SDS011;68699;48.220;16.358;2024-03-08T10:30:25;39.07;;;23.50;;
79261;SDS011;68699;48.220;16.358;2024-03-08T10:32:52;36.53;;;21.30;;
79261;SDS011;68699;48.220;16.358;2024-03-08T10:35:19;35.43;;;21.73;;
79261;SDS011;68699;48.220;16.358;2024-03-08T10:37:48;32.77;;;20.87;;
79261;SDS011;68699;48.220;16.358;2024-03-08T10:40:28;33.77;;;21.57;;
79261;SDS011;68699;48.220;16.358;2024-03-08T10:42:56;32.43;;;20.57;;
79261;SDS011;68699;48.220;16.358;2024-03-08T10:47:50;31.03;;;19.90;;
79261;SDS011;68699;48.220;16.358;2024-03-08T10:50:23;30.60;;;20.37;;
79261;SDS011;68699;48.220;16.358;2024-03-08T10:52:50;29.93;;;19.43;;
79261;SDS011;68699;48.220;16.358;2024-03-08T10:55:17;33.17;;;22.07;;
79261;SDS011;68699;48.220;16.358;2024-03-08T10:57:45;27.47;;;19.10;;
79261;SDS011;68699;48.220;16.358;2024-03-08T11:00:16;29.87;;;18.90;;
79261;SDS011;68699;48.220;16.358;2024-03-08T11:02:44;30.17;;;19.70;;
79261;SDS011;68699;48.220;16.358;2024-03-08T11:05:10;26.03;;;19.17;;
79261;SDS011;68699;48.220;16.358;2024-03-08T11:07:42;28.50;;;20.37;;
79261;SDS011;68699;48.220;16.358;2024-03-08T11:10:18;29.00;;;21.30;;
79261;SDS011;68699;48.220;16.358;2024-03-08T11:12:44;30.37;;;20.60;;
79261;SDS011;68699;48.220;16.358;2024-03-08T11:15:11;34.50;;;21.63;;
79261;SDS011;68699;48.220;16.358;2024-03-08T11:17:45;34.23;;;22.77;;
79261;SDS011;68699;48.220;16.358;2024-03-08T11:20:15;29.00;;;21.30;;
79261;SDS011;68699;48.220;16.358;2024-03-08T11:22:50;29.60;;;21.17;;
79261;SDS011;68699;48.220;16.358;2024-03-08T11:28:17;31.00;;;21.77;;
79261;SDS011;68699;48.220;16.358;2024-03-08T11:30:44;27.90;;;19.97;;
79261;SDS011;68699;48.220;16.358;2024-03-08T11:33:16;28.73;;;19.77;;
79261;SDS011;68699;48.220;16.358;2024-03-08T11:35:43;29.27;;;20.50;;
79261;SDS011;68699;48.220;16.358;2024-03-08T11:38:11;29.63;;;19.67;;
79261;SDS011;68699;48.220;16.358;2024-03-08T11:40:38;26.10;;;19.10;;
79261;SDS011;68699;48.220;16.358;2024-03-08T11:43:05;23.53;;;18.27;;
79261;SDS011;68699;48.220;16.358;2024-03-08T11:45:33;22.70;;;17.93;;
79261;SDS011;68699;48.220;16.358;2024-03-08T11:48:01;21.33;;;16.27;;
79261;SDS011;68699;48.220;16.358;2024-03-08T11:50:28;19.47;;;14.00;;
79261;SDS011;68699;48.220;16.358;2024-03-08T11:53:00;19.93;;;14.23;;
79261;SDS011;68699;48.220;16.358;2024-03-08T11:55:27;19.97;;;14.23;;
79261;SDS011;68699;48.220;16.358;2024-03-08T11:58:03;18.30;;;14.53;;
79261;SDS011;68699;48.220;16.358;2024-03-08T12:00:30;17.80;;;14.30;;
79261;SDS011;68699;48.220;16.358;2024-03-08T12:03:04;18.90;;;14.17;;
79261;SDS011;68699;48.220;16.358;2024-03-08T12:05:31;17.47;;;13.67;;
79261;SDS011;68699;48.220;16.358;2024-03-08T12:07:58;18.17;;;13.73;;
79261;SDS011;68699;48.220;16.358;2024-03-08T12:10:25;19.83;;;13.63;;
79261;SDS011;68699;48.220;16.358;2024-03-08T12:12:52;18.00;;;12.97;;
79261;SDS011;68699;48.220;16.358;2024-03-08T12:15:20;17.77;;;12.70;;
79261;SDS011;68699;48.220;16.358;2024-03-08T12:17:47;13.17;;;9.90;;
79261;SDS011;68699;48.220;16.358;2024-03-08T12:20:20;12.97;;;10.33;;
79261;SDS011;68699;48.220;16.358;2024-03-08T12:22:47;13.83;;;10.70;;
79261;SDS011;68699;48.220;16.358;2024-03-08T12:25:14;13.73;;;11.10;;
79261;SDS011;68699;48.220;16.358;2024-03-08T12:27:41;14.37;;;11.33;;
79261;SDS011;68699;48.220;16.358;2024-03-08T12:30:17;16.07;;;12.43;;
79261;SDS011;68699;48.220;16.358;2024-03-08T12:32:54;14.77;;;11.40;;
79261;SDS011;68699;48.220;16.358;2024-03-08T12:35:24;16.67;;;11.93;;
79261;SDS011;68699;48.220;16.358;2024-03-08T12:37:55;16.50;;;12.40;;
79261;SDS011;68699;48.220;16.358;2024-03-08T12:40:31;15.97;;;12.43;;
79261;SDS011;68699;48.220;16.358;2024-03-08T12:42:59;16.63;;;11.87;;
79261;SDS011;68699;48.220;16.358;2024-03-08T12:45:26;16.07;;;12.63;;
79261;SDS011;68699;48.220;16.358;2024-03-08T12:47:52;16.70;;;12.57;;
79261;SDS011;68699;48.220;16.358;2024-03-08T12:50:22;17.47;;;12.17;;
79261;SDS011;68699;48.220;16.358;2024-03-08T12:52:50;14.07;;;11.30;;
79261;SDS011;68699;48.220;16.358;2024-03-08T12:55:17;14.33;;;11.40;;
79261;SDS011;68699;48.220;16.358;2024-03-08T12:57:44;15.40;;;11.10;;
79261;SDS011;68699;48.220;16.358;2024-03-08T13:00:12;13.43;;;10.33;;
79261;SDS011;68699;48.220;16.358;2024-03-08T13:02:46;13.43;;;10.20;;
79261;SDS011;68699;48.220;16.358;2024-03-08T13:05:13;13.47;;;10.43;;
79261;SDS011;68699;48.220;16.358;2024-03-08T13:07:39;13.10;;;9.37;;
79261;SDS011;68699;48.220;16.358;2024-03-08T13:10:06;12.63;;;10.03;;
79261;SDS011;68699;48.220;16.358;2024-03-08T13:12:34;12.57;;;9.23;;
79261;SDS011;68699;48.220;16.358;2024-03-08T13:15:03;12.73;;;9.20;;
79261;SDS011;68699;48.220;16.358;2024-03-08T13:17:30;10.50;;;9.00;;
79261;SDS011;68699;48.220;16.358;2024-03-08T13:19:56;12.97;;;9.53;;
79261;SDS011;68699;48.220;16.358;2024-03-08T13:22:24;12.00;;;9.00;;
79261;SDS011;68699;48.220;16.358;2024-03-08T13:24:50;11.50;;;8.90;;
79261;SDS011;68699;48.220;16.358;2024-03-08T13:27:17;10.27;;;8.13;;
79261;SDS011;68699;48.220;16.358;2024-03-08T13:29:49;11.70;;;8.80;;
79261;SDS011;68699;48.220;16.358;2024-03-08T13:32:15;10.80;;;8.70;;
79261;SDS011;68699;48.220;16.358;2024-03-08T13:34:45;11.43;;;8.60;;
79261;SDS011;68699;48.220;16.358;2024-03-08T13:37:12;10.47;;;8.43;;
79261;SDS011;68699;48.220;16.358;2024-03-08T13:39:41;10.07;;;8.60;;
79261;SDS011;68699;48.220;16.358;2024-03-08T13:42:15;12.77;;;8.77;;
79261;SDS011;68699;48.220;16.358;2024-03-08T13:44:48;11.83;;;9.40;;
79261;SDS011;68699;48.220;16.358;2024-03-08T13:47:15;10.17;;;8.10;;
79261;SDS011;68699;48.220;16.358;2024-03-08T13:49:42;12.70;;;9.80;;
79261;SDS011;68699;48.220;16.358;2024-03-08T13:52:09;12.83;;;10.77;;
79261;SDS011;68699;48.220;16.358;2024-03-08T13:54:36;12.63;;;9.97;;
79261;SDS011;68699;48.220;16.358;2024-03-08T13:57:03;13.53;;;10.47;;
79261;SDS011;68699;48.220;16.358;2024-03-08T13:59:32;12.43;;;10.00;;
79261;SDS011;68699;48.220;16.358;2024-03-08T14:02:00;13.33;;;10.47;;
79261;SDS011;68699;48.220;16.358;2024-03-08T14:04:27;12.93;;;10.27;;
79261;SDS011;68699;48.220;16.358;2024-03-08T14:06:53;13.27;;;10.63;;
79261;SDS011;68699;48.220;16.358;2024-03-08T14:09:24;13.40;;;10.40;;
79261;SDS011;68699;48.220;16.358;2024-03-08T14:11:54;12.50;;;9.93;;
79261;SDS011;68699;48.220;16.358;2024-03-08T14:14:21;12.43;;;10.00;;
79261;SDS011;68699;48.220;16.358;2024-03-08T14:16:50;13.60;;;10.97;;